createdAt,value
2023-05-15T00:00:23.211Z,101563.91
2023-05-15T00:02:53.431Z,101561.73
2023-05-15T00:05:23.177Z,101565.84
2023-05-15T00:07:53.457Z,101569.31
2023-05-15T00:10:23.035Z,101569.31
2023-05-15T00:12:53.135Z,101564.32
2023-05-15T00:15:23.167Z,101562.75
2023-05-15T00:17:53.591Z,101562.75
2023-05-15T00:20:23.885Z,101564.66
2023-05-15T00:22:54.073Z,101554.30
2023-05-15T00:25:24.096Z,101554.94
2023-05-15T00:27:53.710Z,101549.97
2023-05-15T00:30:24.539Z,101555.37
2023-05-15T00:32:54.725Z,101545.13
2023-05-15T00:35:25.142Z,101527.41
2023-05-15T00:37:54.875Z,101527.41
2023-05-15T00:40:26.715Z,101527.73
2023-05-15T00:42:57.561Z,101527.63
2023-05-15T00:45:29.500Z,101520.96
2023-05-15T00:48:01.687Z,101528.34
2023-05-15T00:50:32.878Z,101531.59
2023-05-15T00:53:04.331Z,101532.04
2023-05-15T00:55:35.359Z,101533.15
2023-05-15T00:58:05.936Z,101549.72
2023-05-15T01:00:36.409Z,101540.61
2023-05-15T01:03:07.208Z,101525.73
2023-05-15T01:05:37.436Z,101534.58
2023-05-15T01:08:26.717Z,101537.84
2023-05-15T01:10:58.347Z,101532.27
2023-05-15T01:13:28.469Z,101526.61
2023-05-15T01:15:59.303Z,101524.54
2023-05-15T01:18:31.076Z,101524.49
2023-05-15T01:21:18.454Z,101530.58
2023-05-15T01:24:03.451Z,101521.38
2023-05-15T01:26:45.333Z,101524.67
2023-05-15T01:29:27.297Z,101525.94
2023-05-15T01:32:00.516Z,101513.83
2023-05-15T01:34:34.111Z,101519.34
2023-05-15T01:37:04.914Z,101515.55
2023-05-15T01:39:36.834Z,101516.28
2023-05-15T01:42:09.801Z,101517.27
2023-05-15T01:44:46.262Z,101518.45
2023-05-15T01:47:18.477Z,101517.15
2023-05-15T01:49:51.782Z,101511.23
2023-05-15T01:52:39.808Z,101511.23
2023-05-15T01:55:10.594Z,101509.44
2023-05-15T01:57:43.276Z,101512.74
2023-05-15T02:00:18.782Z,101505.25
2023-05-15T02:02:49.781Z,101505.23
2023-05-15T02:05:20.839Z,101506.59
2023-05-15T02:07:51.522Z,101501.58
2023-05-15T02:10:23.029Z,101506.84
2023-05-15T02:12:55.999Z,101513.05
2023-05-15T02:15:26.050Z,101500.09
2023-05-15T02:17:56.731Z,101500.83
2023-05-15T02:20:26.652Z,101500.83
2023-05-15T02:22:56.782Z,101503.52
2023-05-15T02:25:32.207Z,101498.00
2023-05-15T02:28:04.576Z,101492.61
2023-05-15T02:30:46.146Z,101492.61
2023-05-15T02:33:22.231Z,101494.84
2023-05-15T02:35:58.956Z,101488.58
2023-05-15T02:38:32.068Z,101494.31
2023-05-15T02:41:03.287Z,101485.84
2023-05-15T02:43:37.371Z,101485.69
2023-05-15T02:46:08.879Z,101485.62
2023-05-15T02:48:44.092Z,101491.53
2023-05-15T02:51:15.387Z,101498.52
2023-05-15T02:53:45.311Z,101508.02
2023-05-15T02:56:17.382Z,101498.72
2023-05-15T02:58:47.377Z,101502.89
2023-05-15T03:01:17.557Z,101511.71
2023-05-15T03:03:49.385Z,101505.30
2023-05-15T03:06:19.244Z,101508.50
2023-05-15T03:08:49.359Z,101497.78
2023-05-15T03:11:21.306Z,101508.53
2023-05-15T03:13:51.570Z,101500.86
2023-05-15T03:16:21.884Z,101509.65
2023-05-15T03:18:51.776Z,101505.09
2023-05-15T03:21:21.682Z,101486.85
2023-05-15T03:23:51.865Z,101486.85
2023-05-15T03:26:21.757Z,101495.83
2023-05-15T03:28:51.586Z,101497.45
2023-05-15T03:31:21.519Z,101489.26
2023-05-15T03:33:51.571Z,101495.34
2023-05-15T03:36:22.487Z,101505.55
2023-05-15T03:38:52.330Z,101501.67
2023-05-15T03:41:22.775Z,101503.05
2023-05-15T03:43:52.873Z,101501.88
2023-05-15T03:46:22.810Z,101493.30
2023-05-15T03:48:54.537Z,101494.16
2023-05-15T03:51:24.439Z,101498.46
2023-05-15T03:53:56.121Z,101491.25
2023-05-15T03:56:26.066Z,101492.28
2023-05-15T03:58:56.259Z,101496.88
2023-05-15T04:01:26.555Z,101496.72
2023-05-15T04:03:56.619Z,101502.04
2023-05-15T04:06:26.114Z,101493.09
2023-05-15T04:08:55.952Z,101495.55
2023-05-15T04:11:26.785Z,101492.06
2023-05-15T04:13:56.972Z,101487.02
2023-05-15T04:16:26.928Z,101487.02
2023-05-15T04:18:57.127Z,101482.26
2023-05-15T04:21:26.907Z,101482.26
2023-05-15T04:23:57.011Z,101476.58
2023-05-15T04:26:26.853Z,101476.58
2023-05-15T04:29:03.939Z,101470.72
2023-05-15T04:31:28.723Z,101470.09
2023-05-15T04:33:58.553Z,101478.66
2023-05-15T04:36:28.526Z,101481.28
2023-05-15T04:38:58.639Z,101484.27
2023-05-15T04:41:28.478Z,101491.84
2023-05-15T04:43:58.580Z,101485.41
2023-05-15T04:46:29.261Z,101485.41
2023-05-15T04:48:59.223Z,101491.84
2023-05-15T04:51:29.204Z,101489.76
2023-05-15T04:53:59.040Z,101497.17
2023-05-15T04:56:28.876Z,101502.18
2023-05-15T04:58:58.728Z,101517.48
2023-05-15T05:01:28.945Z,101512.80
2023-05-15T05:03:58.869Z,101525.25
2023-05-15T05:06:30.451Z,101524.62
2023-05-15T05:09:00.578Z,101528.10
2023-05-15T05:11:30.892Z,101534.63
2023-05-15T05:14:00.772Z,101528.72
2023-05-15T05:16:30.644Z,101521.41
2023-05-15T05:19:00.796Z,101527.38
2023-05-15T05:21:31.305Z,101525.20
2023-05-15T05:24:01.781Z,101531.49
2023-05-15T05:26:31.530Z,101529.42
2023-05-15T05:29:01.630Z,101523.88
2023-05-15T05:31:31.841Z,101531.91
2023-05-15T05:34:02.042Z,101535.66
2023-05-15T05:36:31.902Z,101546.20
2023-05-15T05:39:02.088Z,101552.98
2023-05-15T05:41:32.265Z,101557.20
2023-05-15T05:44:02.373Z,101555.41
2023-05-15T05:46:32.127Z,101556.88
2023-05-15T05:49:02.345Z,101556.73
2023-05-15T05:51:32.693Z,101560.36
2023-05-15T05:54:02.812Z,101556.25
2023-05-15T05:56:32.678Z,101555.34
2023-05-15T05:59:02.934Z,101559.87
2023-05-15T06:01:33.030Z,101555.05
2023-05-15T06:04:03.221Z,101553.68
2023-05-15T06:06:33.393Z,101555.39
2023-05-15T06:09:04.158Z,101522.00
2023-05-15T06:11:34.450Z,101522.00
2023-05-15T06:14:04.622Z,101550.36
2023-05-15T06:16:34.472Z,101546.98
2023-05-15T06:19:04.660Z,101542.72
2023-05-15T06:21:34.818Z,101542.72
2023-05-15T06:24:05.088Z,101549.15
2023-05-15T06:26:35.044Z,101550.84
2023-05-15T06:29:05.237Z,101556.01
2023-05-15T06:31:35.523Z,101550.21
2023-05-15T06:34:06.401Z,101548.73
2023-05-15T06:36:36.195Z,101552.95
2023-05-15T06:39:06.588Z,101558.42
2023-05-15T06:41:36.453Z,101563.89
2023-05-15T06:44:06.755Z,101552.39
2023-05-15T06:46:36.687Z,101547.06
2023-05-15T06:49:06.789Z,101553.54
2023-05-15T06:51:36.909Z,101549.06
2023-05-15T06:54:07.081Z,101553.36
2023-05-15T06:56:36.969Z,101548.63
2023-05-15T06:59:07.132Z,101546.53
2023-05-15T07:01:38.161Z,101542.19
2023-05-15T07:04:08.530Z,101543.57
2023-05-15T07:06:39.032Z,101542.50
2023-05-15T07:09:09.313Z,101547.88
2023-05-15T07:11:40.205Z,101538.70
2023-05-15T07:14:10.290Z,101539.34
2023-05-15T07:16:40.137Z,101540.52
2023-05-15T07:19:10.637Z,101543.47
2023-05-15T07:21:40.980Z,101536.04
2023-05-15T07:24:11.096Z,101541.03
2023-05-15T07:26:50.144Z,101535.91
2023-05-15T07:29:12.866Z,101531.39
2023-05-15T07:31:44.320Z,101527.55
2023-05-15T07:34:14.166Z,101533.99
2023-05-15T07:36:43.981Z,101528.23
2023-05-15T07:39:14.149Z,101531.92
2023-05-15T07:41:44.396Z,101532.25
2023-05-15T07:44:14.777Z,101529.11
2023-05-15T07:46:45.786Z,101527.58
2023-05-15T07:49:15.925Z,101530.62
2023-05-15T07:51:45.779Z,101530.62
2023-05-15T07:54:15.926Z,101527.41
2023-05-15T07:56:46.072Z,101527.41
2023-05-15T07:59:16.294Z,101532.27
2023-05-15T08:01:46.086Z,101528.50
2023-05-15T08:04:16.260Z,101528.64
2023-05-15T08:06:46.124Z,101528.64
2023-05-15T08:09:16.237Z,101523.05
2023-05-15T08:11:46.408Z,101523.05
2023-05-15T08:14:16.284Z,101522.86
2023-05-15T08:16:46.122Z,101522.86
2023-05-15T08:19:16.310Z,101509.13
2023-05-15T08:21:46.242Z,101509.13
2023-05-15T08:24:16.343Z,101520.12
2023-05-15T08:26:45.854Z,101519.81
2023-05-15T08:29:16.767Z,101517.98
2023-05-15T08:31:46.382Z,101515.48
2023-05-15T08:34:17.434Z,101518.13
2023-05-15T08:36:47.259Z,101520.18
2023-05-15T08:39:17.127Z,101521.19
2023-05-15T08:41:55.548Z,101517.83
2023-05-15T08:44:25.805Z,101524.00
2023-05-15T08:46:56.537Z,101522.11
2023-05-15T08:49:42.635Z,101518.00
2023-05-15T08:52:12.785Z,101512.08
2023-05-15T08:54:43.552Z,101482.86
2023-05-15T08:57:15.378Z,101482.86
2023-05-15T08:59:45.060Z,101509.59
2023-05-15T09:02:15.524Z,101501.45
2023-05-15T09:04:45.902Z,101499.80
2023-05-15T09:07:17.471Z,101502.19
2023-05-15T09:09:48.300Z,101505.87
2023-05-15T09:12:20.992Z,101505.87
2023-05-15T09:14:50.685Z,101507.61
2023-05-15T09:17:21.070Z,101509.41
2023-05-15T09:19:50.865Z,101494.55
2023-05-15T09:22:23.761Z,101496.03
2023-05-15T09:24:53.848Z,101500.28
2023-05-15T09:27:23.677Z,101494.36
2023-05-15T09:29:55.198Z,101506.22
2023-05-15T09:32:28.473Z,101497.27
2023-05-15T09:34:58.302Z,101496.20
2023-05-15T09:37:33.686Z,101496.98
2023-05-15T09:40:12.358Z,101499.43
2023-05-15T09:42:42.192Z,101496.89
2023-05-15T09:45:15.009Z,101503.75
2023-05-15T09:47:45.297Z,101506.53
2023-05-15T09:50:19.135Z,101501.02
2023-05-15T09:52:49.018Z,101501.70
2023-05-15T09:55:20.295Z,101502.05
2023-05-15T09:58:13.726Z,101503.03
2023-05-15T10:00:48.658Z,101506.08
2023-05-15T10:03:17.801Z,101506.08
2023-05-15T10:05:47.887Z,101506.90
2023-05-15T10:08:29.586Z,101508.95
2023-05-15T10:11:01.541Z,101505.30
2023-05-15T10:13:34.559Z,101509.89
2023-05-15T10:16:05.951Z,101509.62
2023-05-15T10:18:38.723Z,101519.16
2023-05-15T10:21:10.407Z,101520.47
2023-05-15T10:23:43.525Z,101513.34
2023-05-15T10:26:20.064Z,101514.17
2023-05-15T10:28:51.112Z,101519.09
2023-05-15T10:31:22.806Z,101521.53
2023-05-15T10:33:55.225Z,101516.84
2023-05-15T10:36:25.681Z,101523.31
2023-05-15T10:38:55.882Z,101516.05
2023-05-15T10:41:27.898Z,101521.56
2023-05-15T10:44:01.743Z,101515.86
2023-05-15T10:46:33.763Z,101521.75
2023-05-15T10:49:03.717Z,101516.28
2023-05-15T10:51:35.808Z,101515.95
2023-05-15T10:56:52.337Z,101511.29
2023-05-15T10:59:24.019Z,101512.36
2023-05-15T11:01:54.353Z,101513.14
2023-05-15T11:04:26.440Z,101509.75
2023-05-15T11:06:59.316Z,101506.52
2023-05-15T11:09:37.653Z,101502.73
2023-05-15T11:12:11.726Z,101507.20
2023-05-15T11:14:46.912Z,101506.67
2023-05-15T11:17:17.598Z,101507.39
2023-05-15T11:19:57.883Z,101514.17
2023-05-15T11:22:39.967Z,101511.25
2023-05-15T11:25:14.599Z,101518.27
2023-05-15T11:27:46.521Z,101511.38
2023-05-15T11:30:22.321Z,101508.84
2023-05-15T11:32:58.350Z,101517.87
2023-05-15T11:35:33.676Z,101515.74
2023-05-15T11:38:06.312Z,101518.52
2023-05-15T11:40:54.874Z,101513.56
2023-05-15T11:43:27.191Z,101513.00
2023-05-15T11:45:58.436Z,101505.89
2023-05-15T11:48:35.948Z,101510.84
2023-05-15T11:51:06.717Z,101506.27
2023-05-15T11:53:38.689Z,101511.28
2023-05-15T11:56:08.549Z,101490.85
2023-05-15T11:58:40.201Z,101490.85
2023-05-15T12:01:12.475Z,101508.14
2023-05-15T12:03:42.435Z,101507.81
2023-05-15T12:06:12.915Z,101508.20
2023-05-15T12:08:42.599Z,101503.56
2023-05-15T12:11:13.118Z,101508.16
2023-05-15T12:13:43.127Z,101506.72
2023-05-15T12:16:14.561Z,101507.56
2023-05-15T12:18:44.466Z,101501.85
2023-05-15T12:21:14.563Z,101507.24
2023-05-15T12:24:06.215Z,101516.34
2023-05-15T12:26:26.671Z,101508.22
2023-05-15T12:28:57.214Z,101507.84
2023-05-15T12:31:27.310Z,101516.11
2023-05-15T12:33:57.993Z,101516.05
2023-05-15T12:36:32.046Z,101511.52
2023-05-15T12:39:08.058Z,101515.59
2023-05-15T12:41:38.969Z,101511.45
2023-05-15T12:44:21.258Z,101512.58
2023-05-15T12:46:54.312Z,101512.76
2023-05-15T12:49:24.749Z,101514.91
2023-05-15T12:51:54.562Z,101507.32
2023-05-15T12:54:26.199Z,101511.41
2023-05-15T12:56:57.876Z,101507.02
2023-05-15T12:59:27.884Z,101514.22
2023-05-15T13:01:57.587Z,101507.72
2023-05-15T13:04:27.786Z,101507.81
2023-05-15T13:06:57.688Z,101509.00
2023-05-15T13:09:27.507Z,101505.59
2023-05-15T13:11:57.651Z,101501.06
2023-05-15T13:14:30.740Z,101499.17
2023-05-15T13:17:04.045Z,101499.75
2023-05-15T13:19:34.284Z,101494.70
2023-05-15T13:22:06.634Z,101482.19
2023-05-15T13:24:36.447Z,101490.39
2023-05-15T13:27:06.600Z,101489.97
2023-05-15T13:29:36.428Z,101487.97
2023-05-15T13:32:07.672Z,101492.14
2023-05-15T13:34:37.471Z,101491.91
2023-05-15T13:37:07.657Z,101467.09
2023-05-15T13:39:37.525Z,101486.70
2023-05-15T13:42:07.522Z,101486.49
2023-05-15T13:44:37.626Z,101489.08
2023-05-15T13:47:07.562Z,101487.89
2023-05-15T13:49:37.355Z,101487.59
2023-05-15T13:52:07.507Z,101486.02
2023-05-15T13:54:37.329Z,101489.45
2023-05-15T13:57:07.332Z,101483.99
2023-05-15T13:59:37.147Z,101487.70
2023-05-15T14:02:07.047Z,101476.80
2023-05-15T14:04:37.612Z,101475.49
2023-05-15T14:07:07.432Z,101475.49
2023-05-15T14:09:37.236Z,101488.35
2023-05-15T14:12:09.204Z,101481.59
2023-05-15T14:14:38.999Z,101479.67
2023-05-15T14:17:08.816Z,101476.02
2023-05-15T14:19:38.643Z,101475.72
2023-05-15T14:22:09.954Z,101478.95
2023-05-15T14:24:40.060Z,101481.05
2023-05-15T14:27:09.803Z,101485.97
2023-05-15T14:29:41.023Z,101480.38
2023-05-15T14:32:10.525Z,101486.59
2023-05-15T14:34:40.333Z,101491.64
2023-05-15T14:37:10.361Z,101501.16
2023-05-15T14:39:40.438Z,101499.48
2023-05-15T14:42:10.122Z,101498.58
2023-05-15T14:44:40.361Z,101500.06
2023-05-15T14:47:13.551Z,101503.26
2023-05-15T14:49:43.378Z,101494.14
2023-05-15T14:52:13.385Z,101502.09
2023-05-15T14:54:43.776Z,101494.84
2023-05-15T14:57:16.234Z,101491.69
2023-05-15T14:59:46.101Z,101494.01
2023-05-15T15:02:16.380Z,101502.34
2023-05-15T15:04:46.186Z,101500.36
2023-05-15T15:07:16.271Z,101496.52
2023-05-15T15:09:45.851Z,101504.64
2023-05-15T15:12:16.368Z,101511.06
2023-05-15T15:14:46.247Z,101494.78
2023-05-15T15:17:16.056Z,101494.78
2023-05-15T15:19:45.872Z,101504.94
2023-05-15T15:22:16.109Z,101509.44
2023-05-15T15:24:46.262Z,101510.92
2023-05-15T15:27:16.008Z,101518.31
2023-05-15T15:29:46.338Z,101521.17
2023-05-15T15:34:42.766Z,101523.78
2023-05-15T15:37:12.574Z,101530.87
2023-05-15T15:39:42.410Z,101533.92
2023-05-15T15:42:12.984Z,101538.23
2023-05-15T15:44:43.554Z,101542.02
2023-05-15T15:47:13.377Z,101539.59
2023-05-15T15:49:43.422Z,101543.94
2023-05-15T15:52:13.426Z,101545.41
2023-05-15T15:54:44.596Z,101551.09
2023-05-15T15:57:21.827Z,101543.92
2023-05-15T15:59:51.694Z,101543.50
2023-05-15T16:02:21.601Z,101537.22
2023-05-15T16:04:51.370Z,101538.30
2023-05-15T16:07:21.273Z,101556.74
2023-05-15T16:09:56.947Z,101552.00
2023-05-15T16:12:22.827Z,101560.70
2023-05-15T16:14:52.638Z,101559.33
2023-05-15T16:17:22.473Z,101568.73
2023-05-15T16:19:52.246Z,101562.27
2023-05-15T16:22:23.114Z,101558.56
2023-05-15T16:24:52.913Z,101561.12
2023-05-15T16:27:22.712Z,101559.27
2023-05-15T16:29:52.591Z,101565.19
2023-05-15T16:32:22.482Z,101569.37
2023-05-15T16:34:52.423Z,101570.44
2023-05-15T16:37:22.235Z,101557.04
2023-05-15T16:39:52.031Z,101557.04
2023-05-15T16:42:21.862Z,101563.18
2023-05-15T16:44:51.633Z,101568.38
2023-05-15T16:47:21.513Z,101578.05
2023-05-15T16:49:51.316Z,101571.84
2023-05-15T16:52:20.860Z,101574.64
2023-05-15T16:54:50.485Z,101563.58
2023-05-15T16:57:20.330Z,101562.97
2023-05-15T16:59:50.496Z,101575.75
2023-05-15T17:02:20.050Z,101564.80
2023-05-15T17:04:49.882Z,101583.25
2023-05-15T17:07:19.661Z,101586.96
2023-05-15T17:09:49.466Z,101585.78
2023-05-15T17:12:19.046Z,101578.63
2023-05-15T17:14:48.923Z,101586.33
2023-05-15T17:17:18.908Z,101589.31
2023-05-15T17:19:48.747Z,101591.42
2023-05-15T17:22:18.555Z,101594.45
2023-05-15T17:24:51.720Z,101600.51
2023-05-15T17:27:21.739Z,101592.66
2023-05-15T17:29:51.886Z,101599.29
2023-05-15T17:32:21.837Z,101599.68
2023-05-15T17:34:52.072Z,101603.64
2023-05-15T17:37:21.814Z,101609.45
2023-05-15T17:39:51.638Z,101611.41
2023-05-15T17:42:21.683Z,101609.99
2023-05-15T17:44:51.763Z,101612.34
2023-05-15T17:47:21.696Z,101613.78
2023-05-15T17:49:51.538Z,101615.31
2023-05-15T17:52:21.051Z,101619.84
2023-05-15T17:54:50.891Z,101612.52
2023-05-15T17:57:20.681Z,101619.34
2023-05-15T17:59:50.473Z,101614.08
2023-05-15T18:02:20.035Z,101620.09
2023-05-15T18:04:49.827Z,101621.21
2023-05-15T18:07:19.649Z,101624.31
2023-05-15T18:09:50.113Z,101620.50
2023-05-15T18:12:19.935Z,101628.88
2023-05-15T18:14:49.586Z,101627.26
2023-05-15T18:17:20.045Z,101623.78
2023-05-15T18:19:49.855Z,101623.16
2023-05-15T18:22:20.437Z,101623.16
2023-05-15T18:24:50.541Z,101625.17
2023-05-15T18:27:20.262Z,101622.96
2023-05-15T18:29:50.076Z,101631.40
2023-05-15T18:32:19.882Z,101628.89
2023-05-15T18:34:50.131Z,101631.49
2023-05-15T18:37:20.082Z,101632.41
2023-05-15T18:39:49.920Z,101635.84
2023-05-15T18:42:19.742Z,101631.72
2023-05-15T18:44:49.570Z,101649.16
2023-05-15T18:47:19.992Z,101645.23
2023-05-15T18:49:49.798Z,101648.16
2023-05-15T18:52:21.209Z,101654.36
2023-05-15T18:54:52.487Z,101646.28
2023-05-15T18:57:22.562Z,101654.48
2023-05-15T18:59:52.862Z,101658.72
2023-05-15T19:02:24.522Z,101648.59
2023-05-15T19:04:54.101Z,101666.37
2023-05-15T19:07:23.949Z,101671.41
2023-05-15T19:09:53.749Z,101671.41
2023-05-15T19:12:23.830Z,101666.16
2023-05-15T19:14:53.727Z,101669.86
2023-05-15T19:17:24.261Z,101669.82
2023-05-15T19:19:54.857Z,101677.74
2023-05-15T19:22:24.438Z,101684.52
2023-05-15T19:24:54.292Z,101679.77
2023-05-15T19:27:24.098Z,101691.37
2023-05-15T19:29:53.915Z,101687.69
2023-05-15T19:32:23.835Z,101684.59
2023-05-15T19:34:53.658Z,101688.11
2023-05-15T19:37:23.762Z,101698.47
2023-05-15T19:39:54.036Z,101706.08
2023-05-15T19:42:23.629Z,101700.02
2023-05-15T19:44:53.468Z,101697.45
2023-05-15T19:47:23.389Z,101714.86
2023-05-15T19:49:53.185Z,101714.86
2023-05-15T19:52:23.067Z,101709.52
2023-05-15T19:54:52.872Z,101711.84
2023-05-15T19:57:22.984Z,101711.13
2023-05-15T19:59:52.861Z,101713.06
2023-05-15T20:02:22.401Z,101726.51
2023-05-15T20:04:52.239Z,101729.67
2023-05-15T20:07:22.021Z,101746.91
2023-05-15T20:09:51.822Z,101741.91
2023-05-15T20:12:21.633Z,101738.80
2023-05-15T20:14:52.166Z,101738.80
2023-05-15T20:17:22.034Z,101747.59
2023-05-15T20:19:53.762Z,101746.05
2023-05-15T20:22:23.446Z,101742.22
2023-05-15T20:24:53.230Z,101742.22
2023-05-15T20:27:23.322Z,101739.00
2023-05-15T20:29:53.207Z,101739.73
2023-05-15T20:32:22.982Z,101743.38
2023-05-15T20:34:53.832Z,101743.11
2023-05-15T20:37:25.864Z,101738.37
2023-05-15T20:39:55.927Z,101744.45
2023-05-15T20:42:27.455Z,101744.45
2023-05-15T20:44:57.251Z,101746.27
2023-05-15T20:47:27.094Z,101748.53
2023-05-15T20:49:56.929Z,101754.77
2023-05-15T20:52:26.411Z,101754.77
2023-05-15T20:54:56.218Z,101765.81
2023-05-15T20:57:26.063Z,101764.12
2023-05-15T20:59:55.853Z,101771.30
2023-05-15T21:02:25.822Z,101770.68
2023-05-15T21:04:55.655Z,101771.06
2023-05-15T21:07:25.428Z,101781.82
2023-05-15T21:09:55.212Z,101777.61
2023-05-15T21:12:24.720Z,101784.10
2023-05-15T21:14:54.511Z,101785.63
2023-05-15T21:17:24.025Z,101788.01
2023-05-15T21:19:53.967Z,101801.05
2023-05-15T21:22:23.903Z,101803.05
2023-05-15T21:24:53.832Z,101807.27
2023-05-15T21:27:23.629Z,101802.60
2023-05-15T21:29:53.715Z,101819.63
2023-05-15T21:32:23.511Z,101819.42
2023-05-15T21:34:53.576Z,101816.78
2023-05-15T21:37:23.675Z,101826.55
2023-05-15T21:39:53.222Z,101834.55
2023-05-15T21:42:23.116Z,101838.30
2023-05-15T21:44:52.904Z,101843.73
2023-05-15T21:47:22.785Z,101842.36
2023-05-15T21:49:52.744Z,101849.82
2023-05-15T21:52:22.528Z,101848.88
2023-05-15T21:54:52.056Z,101850.92
2023-05-15T21:57:21.853Z,101853.40
2023-05-15T21:59:51.632Z,101853.79
2023-05-15T22:02:22.412Z,101856.17
2023-05-15T22:04:52.545Z,101857.83
2023-05-15T22:07:22.615Z,101857.37
2023-05-15T22:09:53.043Z,101857.99
2023-05-15T22:12:22.664Z,101858.94
2023-05-15T22:14:59.125Z,101864.73
2023-05-15T22:17:25.571Z,101865.56
2023-05-15T22:19:57.289Z,101867.09
2023-05-15T22:22:26.799Z,101867.09
2023-05-15T22:24:56.624Z,101866.42
2023-05-15T22:27:26.841Z,101873.34
2023-05-15T22:29:57.014Z,101850.09
2023-05-15T22:32:26.651Z,101850.09
2023-05-15T22:34:57.039Z,101867.91
2023-05-15T22:37:26.948Z,101874.20
2023-05-15T22:39:56.806Z,101873.16
2023-05-15T22:42:28.023Z,101872.85
2023-05-15T22:44:57.942Z,101886.19
2023-05-15T22:47:31.043Z,101886.19
2023-05-15T22:50:01.063Z,101891.01
2023-05-15T22:52:30.881Z,101894.13
2023-05-15T22:55:00.681Z,101894.98
2023-05-15T22:57:31.086Z,101899.06
2023-05-15T23:00:00.894Z,101901.14
2023-05-15T23:02:30.808Z,101902.26
2023-05-15T23:05:01.146Z,101910.37
2023-05-15T23:07:31.015Z,101907.38
2023-05-15T23:10:00.887Z,101903.79
2023-05-15T23:12:30.886Z,101908.88
2023-05-15T23:15:00.673Z,101905.19
2023-05-15T23:17:30.913Z,101908.10
2023-05-15T23:20:00.721Z,101918.23
2023-05-15T23:22:30.540Z,101912.16
2023-05-15T23:25:00.792Z,101910.23
2023-05-15T23:27:30.797Z,101919.50
2023-05-15T23:30:00.663Z,101925.34
2023-05-15T23:32:30.554Z,101920.14
2023-05-15T23:35:00.075Z,101927.44
2023-05-15T23:37:30.135Z,101925.61
2023-05-15T23:40:00.016Z,101924.94
2023-05-15T23:42:31.292Z,101934.65
2023-05-15T23:45:01.089Z,101938.28
2023-05-15T23:47:30.963Z,101944.92
2023-05-15T23:50:00.852Z,101943.50
2023-05-15T23:52:30.665Z,101937.77
2023-05-15T23:55:00.816Z,101940.04
2023-05-15T23:57:31.273Z,101934.27
